createdAt,value
2023-05-09T00:00:15.283Z,52.11
2023-05-09T00:01:15.396Z,50.43
2023-05-09T00:02:15.461Z,54.49
2023-05-09T00:03:15.507Z,48.59
2023-05-09T00:04:15.654Z,50.91
2023-05-09T00:05:15.821Z,52.81
2023-05-09T00:06:15.702Z,49.80
2023-05-09T00:07:15.741Z,48.47
2023-05-09T00:08:15.804Z,49.78
2023-05-09T00:09:15.837Z,52.14
2023-05-09T00:10:15.907Z,49.78
2023-05-09T00:11:15.989Z,50.39
2023-05-09T00:12:16.091Z,48.39
2023-05-09T00:13:16.179Z,51.88
2023-05-09T00:14:16.201Z,48.83
2023-05-09T00:15:16.389Z,50.47
2023-05-09T00:16:16.382Z,48.49
2023-05-09T00:17:16.390Z,51.29
2023-05-09T00:18:16.423Z,48.29
2023-05-09T00:19:16.481Z,45.89
2023-05-09T00:20:16.687Z,47.93
2023-05-09T00:21:16.647Z,48.60
2023-05-09T00:22:16.709Z,50.34
2023-05-09T00:23:16.761Z,49.70
2023-05-09T00:24:16.836Z,50.46
2023-05-09T00:25:17.226Z,51.20
2023-05-09T00:26:16.949Z,48.25
2023-05-09T00:27:16.990Z,50.25
2023-05-09T00:28:17.080Z,49.30
2023-05-09T00:29:17.131Z,49.49
2023-05-09T00:30:17.177Z,49.11
2023-05-09T00:31:17.283Z,49.21
2023-05-09T00:32:17.420Z,51.76
2023-05-09T00:33:17.393Z,51.85
2023-05-09T00:34:17.426Z,50.28
2023-05-09T00:35:17.574Z,52.15
2023-05-09T00:36:17.665Z,51.82
2023-05-09T00:37:17.630Z,50.79
2023-05-09T00:38:17.693Z,48.41
2023-05-09T00:39:17.765Z,51.72
2023-05-09T00:40:17.844Z,48.90
2023-05-09T00:41:17.885Z,49.83
2023-05-09T00:42:17.955Z,49.56
2023-05-09T00:43:18.011Z,48.44
2023-05-09T00:44:18.071Z,52.23
2023-05-09T00:45:18.177Z,49.30
2023-05-09T00:46:18.247Z,52.03
2023-05-09T00:47:18.283Z,51.12
2023-05-09T00:48:18.312Z,48.83
2023-05-09T00:49:18.345Z,50.02
2023-05-09T00:50:18.381Z,50.80
2023-05-09T00:51:18.499Z,50.94
2023-05-09T00:52:18.672Z,50.75
2023-05-09T00:53:18.621Z,50.68
2023-05-09T00:54:18.670Z,52.28
2023-05-09T00:55:18.725Z,51.16
2023-05-09T00:56:18.782Z,47.80
2023-05-09T00:57:18.836Z,52.08
2023-05-09T00:58:18.920Z,48.87
2023-05-09T00:59:18.967Z,50.63
2023-05-09T01:00:19.029Z,51.32
2023-05-09T01:01:19.176Z,51.45
2023-05-09T01:02:19.226Z,50.87
2023-05-09T01:03:19.320Z,51.85
2023-05-09T01:04:19.278Z,49.69
2023-05-09T01:05:19.374Z,49.56
2023-05-09T01:06:19.454Z,47.85
2023-05-09T01:07:19.491Z,52.50
2023-05-09T01:08:19.660Z,49.77
2023-05-09T01:09:19.649Z,50.05
2023-05-09T01:10:19.667Z,48.19
2023-05-09T01:11:19.762Z,53.96
2023-05-09T01:12:19.814Z,47.90
2023-05-09T01:13:20.020Z,51.85
2023-05-09T01:14:19.905Z,50.03
2023-05-09T01:15:19.997Z,50.90
2023-05-09T01:16:20.064Z,49.07
2023-05-09T01:17:20.089Z,47.86
2023-05-09T01:18:20.148Z,47.19
2023-05-09T01:19:20.203Z,50.34
2023-05-09T01:20:20.225Z,49.97
2023-05-09T01:21:20.313Z,52.60
2023-05-09T01:22:20.374Z,48.52
2023-05-09T01:23:20.464Z,48.85
2023-05-09T01:24:20.602Z,50.71
2023-05-09T01:25:20.553Z,47.72
2023-05-09T01:26:20.688Z,50.85
2023-05-09T01:27:20.734Z,50.42
2023-05-09T01:28:20.747Z,49.04
2023-05-09T01:29:20.806Z,51.72
2023-05-09T01:30:20.852Z,50.66
2023-05-09T01:31:20.930Z,48.60
2023-05-09T01:32:20.957Z,50.24
2023-05-09T01:33:21.016Z,51.04
2023-05-09T01:34:21.083Z,51.50
2023-05-09T01:35:21.126Z,50.68
2023-05-09T01:36:21.186Z,48.33
2023-05-09T01:37:21.227Z,51.83
2023-05-09T01:38:21.269Z,50.49
2023-05-09T01:39:21.333Z,51.08
2023-05-09T01:40:21.494Z,50.07
2023-05-09T01:41:21.635Z,54.00
2023-05-09T01:42:21.482Z,51.64
2023-05-09T01:43:21.549Z,49.23
2023-05-09T01:44:21.602Z,49.36
2023-05-09T01:45:21.681Z,50.80
2023-05-09T01:46:22.164Z,51.15
2023-05-09T01:47:21.719Z,48.79
2023-05-09T01:48:21.800Z,50.19
2023-05-09T01:49:21.836Z,50.44
2023-05-09T01:50:21.893Z,48.27
2023-05-09T01:51:21.996Z,50.04
2023-05-09T01:52:21.991Z,49.02
2023-05-09T01:53:22.048Z,47.96
2023-05-09T01:54:22.061Z,48.15
2023-05-09T01:55:22.137Z,48.70
2023-05-09T01:56:22.272Z,47.36
2023-05-09T01:57:22.230Z,47.22
2023-05-09T01:58:22.301Z,47.91
2023-05-09T01:59:22.349Z,48.19
2023-05-09T02:00:22.414Z,48.31
2023-05-09T02:01:22.501Z,47.59
2023-05-09T02:02:22.680Z,49.52
2023-05-09T02:03:22.577Z,49.41
2023-05-09T02:04:22.614Z,47.72
2023-05-09T02:05:22.630Z,47.98
2023-05-09T02:06:22.690Z,48.07
2023-05-09T02:07:22.705Z,48.85
2023-05-09T02:08:22.763Z,48.87
2023-05-09T02:09:22.793Z,51.38
2023-05-09T02:10:22.846Z,50.24
2023-05-09T02:11:22.888Z,47.08
2023-05-09T02:12:23.008Z,48.42
2023-05-09T02:13:23.104Z,47.71
2023-05-09T02:14:23.011Z,50.92
2023-05-09T02:15:23.087Z,47.45
2023-05-09T02:16:23.180Z,47.05
2023-05-09T02:17:23.326Z,51.03
2023-05-09T02:18:23.184Z,47.42
2023-05-09T02:19:23.206Z,49.84
2023-05-09T02:20:23.246Z,48.30
2023-05-09T02:21:23.302Z,49.85
2023-05-09T02:22:23.328Z,50.03
2023-05-09T02:23:23.336Z,48.59
2023-05-09T02:24:23.392Z,49.38
2023-05-09T02:25:23.448Z,47.62
2023-05-09T02:26:23.441Z,51.00
2023-05-09T02:27:23.485Z,50.31
2023-05-09T02:28:23.616Z,47.77
2023-05-09T02:29:23.557Z,47.39
2023-05-09T02:30:23.596Z,48.67
2023-05-09T02:31:23.602Z,48.11
2023-05-09T02:32:23.649Z,46.13
2023-05-09T02:33:23.661Z,48.00
2023-05-09T02:34:23.654Z,45.89
2023-05-09T02:35:23.690Z,46.39
2023-05-09T02:36:23.746Z,47.21
2023-05-09T02:37:23.758Z,48.77
2023-05-09T02:38:23.797Z,48.53
2023-05-09T02:39:23.750Z,47.14
2023-05-09T02:40:23.755Z,48.33
2023-05-09T02:41:23.763Z,47.98
2023-05-09T02:42:23.768Z,50.13
2023-05-09T02:43:23.786Z,46.29
2023-05-09T02:44:23.849Z,48.59
2023-05-09T02:45:23.741Z,49.77
2023-05-09T02:46:23.800Z,48.24
2023-05-09T02:47:23.795Z,49.72
2023-05-09T02:48:23.767Z,49.28
2023-05-09T02:49:32.007Z,50.93
2023-05-09T02:50:24.750Z,51.06
2023-05-09T02:51:23.732Z,49.04
2023-05-09T02:52:23.756Z,50.35
2023-05-09T02:53:23.746Z,48.19
2023-05-09T02:54:23.727Z,50.21
2023-05-09T02:55:23.717Z,49.09
2023-05-09T02:56:23.692Z,47.41
2023-05-09T02:57:24.204Z,48.04
2023-05-09T02:58:23.674Z,47.04
2023-05-09T02:59:23.677Z,48.13
2023-05-09T03:00:23.740Z,47.24
2023-05-09T03:01:23.737Z,46.57
2023-05-09T03:02:23.840Z,49.04
2023-05-09T03:03:23.711Z,46.95
2023-05-09T03:04:23.664Z,49.91
2023-05-09T03:05:23.638Z,47.88
2023-05-09T03:06:23.670Z,49.57
2023-05-09T03:07:23.741Z,50.17
2023-05-09T03:08:23.751Z,49.74
2023-05-09T03:09:23.819Z,47.87
2023-05-09T03:10:23.863Z,50.45
2023-05-09T03:11:23.928Z,48.16
2023-05-09T03:12:24.015Z,47.31
2023-05-09T03:13:24.119Z,49.36
2023-05-09T03:14:24.112Z,51.25
2023-05-09T03:15:24.152Z,48.39
2023-05-09T03:16:24.339Z,50.02
2023-05-09T03:17:24.271Z,48.24
2023-05-09T03:18:24.307Z,49.84
2023-05-09T03:19:24.369Z,49.44
2023-05-09T03:20:24.412Z,49.49
2023-05-09T03:21:24.463Z,47.95
2023-05-09T03:22:24.525Z,46.85
2023-05-09T03:23:24.631Z,51.01
2023-05-09T03:24:24.609Z,50.09
2023-05-09T03:25:24.634Z,49.19
2023-05-09T03:26:24.697Z,50.01
2023-05-09T03:27:25.209Z,50.20
2023-05-09T03:28:24.801Z,49.16
2023-05-09T03:29:24.859Z,52.09
2023-05-09T03:30:24.939Z,51.14
2023-05-09T03:31:25.039Z,50.20
2023-05-09T03:32:25.168Z,48.89
2023-05-09T03:33:25.111Z,48.25
2023-05-09T03:34:25.156Z,48.84
2023-05-09T03:35:25.193Z,46.83
2023-05-09T03:36:25.279Z,50.15
2023-05-09T03:37:27.107Z,52.05
2023-05-09T03:38:25.355Z,47.51
2023-05-09T03:39:25.441Z,51.16
2023-05-09T03:40:25.472Z,46.61
2023-05-09T03:41:25.542Z,49.79
2023-05-09T03:42:25.567Z,47.93
2023-05-09T03:43:25.645Z,50.60
2023-05-09T03:44:25.694Z,47.94
2023-05-09T03:45:25.724Z,50.76
2023-05-09T03:46:25.843Z,48.14
2023-05-09T03:47:25.813Z,49.96
2023-05-09T03:48:25.961Z,48.44
2023-05-09T03:49:25.942Z,47.65
2023-05-09T03:50:25.989Z,48.82
2023-05-09T03:51:26.094Z,50.78
2023-05-09T03:52:26.711Z,47.22
2023-05-09T03:53:26.133Z,47.74
2023-05-09T03:54:26.217Z,49.73
2023-05-09T03:55:26.240Z,50.69
2023-05-09T03:56:26.318Z,47.62
2023-05-09T03:57:26.352Z,52.27
2023-05-09T03:58:26.423Z,47.95
2023-05-09T03:59:26.430Z,49.03
2023-05-09T04:00:26.458Z,47.48
2023-05-09T04:01:26.498Z,48.70
2023-05-09T04:02:26.565Z,49.44
2023-05-09T04:03:26.668Z,48.44
2023-05-09T04:04:26.723Z,49.83
2023-05-09T04:05:26.674Z,50.55
2023-05-09T04:06:26.710Z,50.85
2023-05-09T04:07:27.227Z,47.53
2023-05-09T04:08:26.795Z,50.71
2023-05-09T04:09:26.828Z,46.91
2023-05-09T04:10:26.873Z,51.83
2023-05-09T04:11:26.916Z,51.26
2023-05-09T04:12:26.955Z,49.89
2023-05-09T04:13:27.025Z,49.81
2023-05-09T04:14:27.052Z,49.05
2023-05-09T04:15:27.111Z,49.89
2023-05-09T04:16:27.180Z,50.90
2023-05-09T04:17:27.291Z,49.57
2023-05-09T04:18:27.246Z,48.44
2023-05-09T04:19:27.293Z,50.96
2023-05-09T04:20:27.470Z,48.68
2023-05-09T04:21:27.377Z,50.13
2023-05-09T04:22:27.449Z,49.92
2023-05-09T04:23:27.497Z,45.34
2023-05-09T04:24:27.558Z,49.61
2023-05-09T04:25:27.589Z,50.03
2023-05-09T04:26:27.643Z,48.00
2023-05-09T04:27:27.728Z,49.81
2023-05-09T04:28:27.718Z,48.84
2023-05-09T04:29:27.766Z,50.39
2023-05-09T04:30:27.834Z,50.17
2023-05-09T04:31:27.951Z,48.84
2023-05-09T04:32:27.942Z,46.80
2023-05-09T04:33:27.975Z,48.78
2023-05-09T04:34:28.043Z,49.99
2023-05-09T04:35:28.082Z,48.11
2023-05-09T04:36:28.207Z,51.99
2023-05-09T04:37:28.277Z,51.29
2023-05-09T04:38:28.242Z,49.15
2023-05-09T04:39:28.269Z,46.17
2023-05-09T04:40:28.337Z,48.16
2023-05-09T04:41:28.347Z,48.57
2023-05-09T04:42:28.751Z,50.31
2023-05-09T04:43:28.387Z,46.38
2023-05-09T04:44:28.355Z,48.81
2023-05-09T04:45:28.379Z,49.18
2023-05-09T04:46:28.373Z,50.41
2023-05-09T04:47:28.807Z,50.63
2023-05-09T04:48:28.373Z,47.27
2023-05-09T04:49:28.376Z,50.56
2023-05-09T04:50:28.389Z,49.92
2023-05-09T04:51:28.353Z,49.86
2023-05-09T04:52:28.582Z,48.44
2023-05-09T04:53:28.375Z,48.51
2023-05-09T04:54:28.394Z,49.07
2023-05-09T04:55:28.412Z,50.97
2023-05-09T04:56:28.385Z,50.74
2023-05-09T04:57:28.395Z,48.22
2023-05-09T04:58:28.405Z,50.88
2023-05-09T04:59:28.377Z,51.77
2023-05-09T05:00:28.423Z,48.26
2023-05-09T05:01:28.457Z,49.64
2023-05-09T05:02:28.796Z,51.87
2023-05-09T05:03:28.446Z,51.33
2023-05-09T05:04:28.470Z,48.76
2023-05-09T05:05:28.686Z,49.95
2023-05-09T05:06:28.410Z,53.81
2023-05-09T05:07:28.430Z,49.75
2023-05-09T05:08:28.506Z,51.82
2023-05-09T05:09:28.405Z,50.10
2023-05-09T05:10:28.433Z,52.43
2023-05-09T05:11:28.382Z,53.84
2023-05-09T05:12:28.398Z,51.77
2023-05-09T05:13:28.430Z,48.12
2023-05-09T05:14:28.384Z,47.05
2023-05-09T05:15:28.352Z,50.54
2023-05-09T05:16:28.410Z,52.58
2023-05-09T05:17:28.410Z,50.85
2023-05-09T05:18:28.383Z,51.71
2023-05-09T05:19:28.357Z,50.02
2023-05-09T05:20:28.372Z,50.49
2023-05-09T05:21:28.330Z,50.47
2023-05-09T05:22:29.016Z,51.66
2023-05-09T05:23:28.347Z,56.22
2023-05-09T05:24:28.461Z,56.88
2023-05-09T05:25:28.368Z,55.04
2023-05-09T05:26:28.372Z,58.36
2023-05-09T05:27:28.362Z,57.52
2023-05-09T05:28:28.409Z,54.67
2023-05-09T05:29:28.360Z,50.09
2023-05-09T05:30:28.349Z,50.40
2023-05-09T05:31:28.392Z,48.69
2023-05-09T05:32:28.393Z,44.93
2023-05-09T05:33:28.336Z,49.66
2023-05-09T05:34:28.356Z,48.11
2023-05-09T05:35:28.353Z,49.30
2023-05-09T05:36:28.365Z,47.26
2023-05-09T05:37:28.802Z,51.00
2023-05-09T05:38:28.340Z,48.37
2023-05-09T05:39:28.344Z,46.38
2023-05-09T05:40:28.439Z,46.06
2023-05-09T05:41:28.332Z,45.15
2023-05-09T05:42:28.382Z,42.71
2023-05-09T05:43:28.335Z,44.52
2023-05-09T05:44:28.346Z,46.32
2023-05-09T05:45:28.424Z,44.55
2023-05-09T05:46:28.382Z,44.70
2023-05-09T05:47:28.370Z,48.90
2023-05-09T05:48:28.373Z,55.55
2023-05-09T05:49:28.376Z,59.44
2023-05-09T05:50:28.393Z,66.29
2023-05-09T05:51:28.353Z,69.52
2023-05-09T05:52:28.362Z,69.11
2023-05-09T05:53:29.817Z,71.77
2023-05-09T05:54:28.418Z,76.46
2023-05-09T05:55:28.456Z,78.38
2023-05-09T05:56:28.680Z,79.29
2023-05-09T05:57:28.548Z,82.90
2023-05-09T05:58:28.653Z,84.22
2023-05-09T05:59:28.675Z,90.88
2023-05-09T06:00:28.726Z,91.80
2023-05-09T06:01:28.789Z,95.55
2023-05-09T06:02:28.889Z,86.53
2023-05-09T06:03:29.388Z,87.94
2023-05-09T06:04:28.828Z,81.75
2023-05-09T06:05:28.835Z,89.48
2023-05-09T06:06:28.867Z,97.18
2023-05-09T06:07:28.852Z,97.46
2023-05-09T06:08:29.298Z,102.56
2023-05-09T06:09:28.886Z,107.79
2023-05-09T06:10:28.942Z,111.49
2023-05-09T06:11:28.911Z,112.25
2023-05-09T06:12:29.014Z,116.00
2023-05-09T06:13:29.348Z,113.73
2023-05-09T06:14:29.017Z,119.89
2023-05-09T06:15:28.904Z,122.30
2023-05-09T06:16:28.950Z,128.50
2023-05-09T06:17:28.952Z,130.62
2023-05-09T06:18:28.948Z,135.77
2023-05-09T06:19:28.914Z,138.23
2023-05-09T06:20:28.968Z,138.88
2023-05-09T06:21:28.969Z,140.62
2023-05-09T06:22:29.013Z,146.69
2023-05-09T06:23:29.098Z,146.17
2023-05-09T06:24:35.561Z,149.61
2023-05-09T06:25:30.139Z,149.91
2023-05-09T06:26:29.148Z,150.69
2023-05-09T06:27:29.167Z,152.04
2023-05-09T06:28:29.195Z,155.81
2023-05-09T06:29:29.090Z,157.21
2023-05-09T06:30:29.242Z,159.70
2023-05-09T06:31:29.151Z,160.11
2023-05-09T06:32:29.141Z,163.49
2023-05-09T06:33:29.094Z,167.78
2023-05-09T06:34:29.073Z,170.22
2023-05-09T06:35:29.068Z,170.63
2023-05-09T06:36:29.157Z,171.34
2023-05-09T06:37:29.161Z,173.66
2023-05-09T06:38:29.296Z,173.08
2023-05-09T06:39:29.251Z,176.03
2023-05-09T06:40:29.321Z,173.36
2023-05-09T06:41:29.323Z,172.93
2023-05-09T06:42:29.350Z,173.62
2023-05-09T06:43:29.849Z,177.90
2023-05-09T06:44:29.433Z,180.71
2023-05-09T06:45:29.526Z,182.24
2023-05-09T06:46:29.520Z,184.74
2023-05-09T06:47:29.596Z,182.08
2023-05-09T06:48:29.834Z,187.14
2023-05-09T06:49:29.576Z,188.27
2023-05-09T06:50:32.687Z,184.16
2023-05-09T06:51:29.600Z,189.49
2023-05-09T06:52:29.568Z,191.04
2023-05-09T06:53:29.613Z,171.05
2023-05-09T06:54:29.572Z,165.51
2023-05-09T06:55:29.578Z,171.74
2023-05-09T06:56:29.563Z,173.17
2023-05-09T06:57:29.561Z,167.58
2023-05-09T06:58:29.537Z,172.94
2023-05-09T06:59:29.548Z,174.67
2023-05-09T07:00:29.618Z,174.17
2023-05-09T07:01:29.590Z,171.33
2023-05-09T07:02:29.521Z,177.43
2023-05-09T07:03:29.527Z,186.48
2023-05-09T07:04:29.539Z,192.85
2023-05-09T07:05:29.585Z,196.01
2023-05-09T07:06:29.509Z,195.37
2023-05-09T07:07:29.468Z,199.06
2023-05-09T07:08:29.498Z,199.38
2023-05-09T07:09:29.472Z,199.29
2023-05-09T07:10:29.451Z,202.17
2023-05-09T07:11:29.467Z,207.92
2023-05-09T07:12:29.431Z,205.16
2023-05-09T07:13:29.452Z,210.80
2023-05-09T07:14:29.454Z,210.44
2023-05-09T07:15:40.417Z,211.39
2023-05-09T07:16:30.610Z,211.69
2023-05-09T07:17:29.433Z,211.66
2023-05-09T07:18:29.884Z,209.97
2023-05-09T07:19:29.435Z,208.38
2023-05-09T07:20:29.389Z,208.77
2023-05-09T07:21:29.398Z,209.44
2023-05-09T07:22:31.511Z,208.44
2023-05-09T07:23:29.387Z,210.12
2023-05-09T07:24:29.338Z,209.14
2023-05-09T07:25:29.354Z,206.39
2023-05-09T07:26:29.348Z,205.35
2023-05-09T07:27:29.316Z,204.55
2023-05-09T07:28:29.321Z,203.02
2023-05-09T07:29:29.311Z,203.10
2023-05-09T07:30:29.334Z,202.61
2023-05-09T07:31:29.375Z,202.62
2023-05-09T07:32:29.410Z,200.03
2023-05-09T07:33:29.333Z,200.15
2023-05-09T07:34:29.288Z,202.77
2023-05-09T07:35:29.299Z,203.54
2023-05-09T07:36:29.260Z,207.65
2023-05-09T07:37:29.259Z,208.24
2023-05-09T07:38:29.356Z,208.71
2023-05-09T07:39:29.246Z,210.25
2023-05-09T07:40:29.236Z,208.11
2023-05-09T07:41:29.849Z,209.18
2023-05-09T07:42:29.237Z,209.57
2023-05-09T07:43:29.201Z,210.77
2023-05-09T07:44:29.212Z,208.26
2023-05-09T07:45:29.183Z,212.36
2023-05-09T07:46:29.249Z,206.18
2023-05-09T07:47:29.210Z,207.15
2023-05-09T07:48:29.424Z,202.65
2023-05-09T07:49:29.152Z,201.75
2023-05-09T07:50:29.156Z,201.93
2023-05-09T07:51:29.166Z,202.04
2023-05-09T07:52:29.146Z,202.59
2023-05-09T07:53:29.131Z,207.64
2023-05-09T07:54:29.124Z,205.89
2023-05-09T07:55:29.110Z,212.20
2023-05-09T07:56:29.108Z,217.32
2023-05-09T07:57:29.088Z,211.44
2023-05-09T07:58:29.109Z,207.61
2023-05-09T07:59:29.077Z,202.67
2023-05-09T08:00:29.074Z,185.57
2023-05-09T08:01:29.099Z,171.56
2023-05-09T08:02:29.162Z,158.89
2023-05-09T08:03:29.496Z,148.24
2023-05-09T08:04:29.272Z,141.43
2023-05-09T08:05:29.057Z,131.97
2023-05-09T08:06:29.034Z,122.00
2023-05-09T08:07:29.042Z,114.20
2023-05-09T08:08:29.350Z,110.27
2023-05-09T08:09:29.072Z,100.29
2023-05-09T08:10:29.104Z,99.23
2023-05-09T08:11:29.114Z,93.96
2023-05-09T08:12:29.152Z,89.31
2023-05-09T08:13:29.284Z,81.36
2023-05-09T08:14:29.265Z,81.54
2023-05-09T08:15:29.317Z,81.87
2023-05-09T08:16:29.494Z,75.62
2023-05-09T08:17:29.494Z,67.22
2023-05-09T08:18:29.481Z,68.05
2023-05-09T08:19:29.558Z,67.34
2023-05-09T08:20:29.685Z,74.99
2023-05-09T08:21:29.650Z,79.38
2023-05-09T08:22:29.699Z,82.34
2023-05-09T08:23:29.778Z,86.29
2023-05-09T08:24:29.825Z,90.44
2023-05-09T08:25:29.870Z,90.12
2023-05-09T08:26:29.891Z,92.51
2023-05-09T08:27:29.963Z,93.94
2023-05-09T08:28:30.371Z,98.71
2023-05-09T08:29:30.059Z,99.26
2023-05-09T08:30:30.904Z,98.70
2023-05-09T08:31:30.195Z,96.88
2023-05-09T08:32:30.159Z,99.38
2023-05-09T08:33:30.127Z,97.55
2023-05-09T08:34:30.161Z,97.98
2023-05-09T08:35:30.165Z,98.07
2023-05-09T08:36:30.263Z,94.99
2023-05-09T08:37:30.179Z,98.93
2023-05-09T08:38:30.376Z,101.49
2023-05-09T08:39:30.194Z,101.16
2023-05-09T08:40:30.196Z,102.54
2023-05-09T08:41:30.196Z,83.58
2023-05-09T08:42:30.232Z,79.77
2023-05-09T08:43:30.216Z,82.44
2023-05-09T08:44:30.218Z,85.74
2023-05-09T08:45:30.226Z,86.20
2023-05-09T08:46:30.233Z,91.06
2023-05-09T08:47:30.240Z,81.50
2023-05-09T08:48:30.184Z,90.99
2023-05-09T08:49:30.402Z,92.79
2023-05-09T08:50:30.176Z,95.94
2023-05-09T08:51:30.194Z,91.08
2023-05-09T08:52:30.264Z,86.61
2023-05-09T08:53:30.242Z,89.78
2023-05-09T08:54:30.418Z,100.23
2023-05-09T08:55:30.165Z,102.33
2023-05-09T08:56:30.156Z,88.43
2023-05-09T08:57:30.179Z,85.34
2023-05-09T08:58:30.175Z,65.42
2023-05-09T08:59:30.394Z,79.72
2023-05-09T09:00:30.149Z,89.65
2023-05-09T09:01:30.164Z,95.59
2023-05-09T09:02:30.229Z,98.33
2023-05-09T09:03:30.127Z,99.18
2023-05-09T09:04:30.433Z,100.27
2023-05-09T09:06:30.153Z,102.54
2023-05-09T09:07:31.264Z,102.77
2023-05-09T09:08:30.244Z,103.85
2023-05-09T09:09:30.398Z,105.30
2023-05-09T09:10:30.113Z,107.81
2023-05-09T09:11:30.124Z,106.39
2023-05-09T09:12:30.122Z,107.64
2023-05-09T09:13:30.320Z,103.19
2023-05-09T09:14:30.397Z,104.71
2023-05-09T09:15:30.088Z,103.02
2023-05-09T09:16:30.160Z,99.90
2023-05-09T09:17:30.110Z,100.32
2023-05-09T09:18:30.061Z,99.89
2023-05-09T09:19:30.084Z,98.32
2023-05-09T09:20:30.050Z,100.42
2023-05-09T09:21:30.027Z,100.79
2023-05-09T09:22:30.029Z,102.71
2023-05-09T09:23:30.046Z,99.96
2023-05-09T09:24:30.136Z,73.45
2023-05-09T09:25:30.119Z,84.19
2023-05-09T09:26:30.215Z,86.47
2023-05-09T09:27:30.273Z,86.16
2023-05-09T09:28:30.294Z,88.82
2023-05-09T09:29:30.414Z,87.02
2023-05-09T09:30:30.348Z,84.71
2023-05-09T09:31:30.474Z,85.64
2023-05-09T09:32:30.457Z,85.83
2023-05-09T09:33:30.413Z,82.89
2023-05-09T09:34:30.910Z,85.52
2023-05-09T09:35:30.441Z,87.00
2023-05-09T09:36:30.420Z,78.67
2023-05-09T09:37:30.467Z,82.31
2023-05-09T09:38:30.470Z,80.79
2023-05-09T09:39:30.926Z,80.22
2023-05-09T09:40:30.655Z,77.23
2023-05-09T09:41:30.632Z,76.21
2023-05-09T09:42:30.682Z,84.23
2023-05-09T09:43:30.765Z,79.47
2023-05-09T09:44:30.949Z,74.54
2023-05-09T09:45:30.863Z,75.02
2023-05-09T09:46:30.979Z,68.11
2023-05-09T09:47:31.067Z,70.56
2023-05-09T09:48:31.039Z,73.21
2023-05-09T09:49:31.426Z,65.41
2023-05-09T09:50:31.104Z,65.65
2023-05-09T09:51:31.193Z,80.85
2023-05-09T09:52:31.219Z,85.56
2023-05-09T09:53:31.281Z,66.24
2023-05-09T09:54:31.437Z,69.05
2023-05-09T09:55:31.440Z,76.15
2023-05-09T09:56:31.587Z,85.26
2023-05-09T09:57:31.571Z,87.25
2023-05-09T09:58:31.616Z,95.77
2023-05-09T09:59:31.675Z,94.44
2023-05-09T10:00:31.771Z,93.61
2023-05-09T10:01:31.837Z,93.86
2023-05-09T10:02:32.036Z,91.38
2023-05-09T10:03:31.910Z,92.36
2023-05-09T10:04:31.961Z,95.91
2023-05-09T10:05:31.992Z,95.27
2023-05-09T10:06:32.063Z,93.39
2023-05-09T10:07:32.103Z,96.62
2023-05-09T10:08:32.132Z,96.08
2023-05-09T10:09:32.428Z,93.44
2023-05-09T10:10:32.223Z,96.80
2023-05-09T10:11:32.264Z,95.79
2023-05-09T10:12:32.423Z,99.97
2023-05-09T10:13:32.306Z,93.97
2023-05-09T10:14:34.329Z,98.10
2023-05-09T10:15:41.273Z,107.31
2023-05-09T10:16:43.787Z,107.45
2023-05-09T10:17:33.702Z,107.55
2023-05-09T10:18:32.702Z,108.37
2023-05-09T10:19:32.992Z,109.40
2023-05-09T10:20:32.522Z,112.06
2023-05-09T10:21:32.587Z,113.97
2023-05-09T10:22:32.509Z,111.94
2023-05-09T10:23:32.516Z,106.74
2023-05-09T10:24:32.519Z,109.99
2023-05-09T10:25:32.528Z,113.60
2023-05-09T10:26:32.551Z,114.54
2023-05-09T10:27:32.500Z,112.48
2023-05-09T10:28:32.575Z,103.43
2023-05-09T10:29:32.466Z,98.95
2023-05-09T10:30:34.061Z,96.65
2023-05-09T10:31:32.510Z,90.57
2023-05-09T10:32:32.526Z,85.64
2023-05-09T10:33:32.434Z,82.94
2023-05-09T10:34:32.453Z,80.45
2023-05-09T10:35:32.417Z,72.36
2023-05-09T10:36:32.393Z,64.66
2023-05-09T10:37:33.514Z,62.22
2023-05-09T10:38:32.407Z,59.76
2023-05-09T10:39:32.389Z,44.88
2023-05-09T10:40:32.383Z,47.32
2023-05-09T10:41:32.364Z,35.43
2023-05-09T10:42:32.366Z,37.08
2023-05-09T10:43:32.601Z,28.97
2023-05-09T10:44:32.554Z,40.52
2023-05-09T10:45:32.354Z,47.56
2023-05-09T10:46:32.373Z,45.38
2023-05-09T10:47:32.459Z,48.57
2023-05-09T10:48:32.344Z,53.21
2023-05-09T10:49:33.056Z,54.18
2023-05-09T10:50:32.313Z,52.56
2023-05-09T10:51:32.312Z,46.98
2023-05-09T10:52:32.294Z,43.90
2023-05-09T10:53:32.308Z,45.97
2023-05-09T10:54:32.263Z,43.15
2023-05-09T10:55:32.289Z,45.18
2023-05-09T10:56:32.317Z,41.70
2023-05-09T10:57:32.289Z,39.95
2023-05-09T10:58:32.273Z,38.10
2023-05-09T10:59:32.439Z,36.00
2023-05-09T11:00:32.330Z,40.83
2023-05-09T11:01:32.238Z,48.64
2023-05-09T11:02:32.305Z,46.74
2023-05-09T11:03:32.355Z,51.09
2023-05-09T11:04:32.470Z,50.07
2023-05-09T11:05:32.330Z,49.32
2023-05-09T11:06:32.316Z,50.72
2023-05-09T11:07:32.408Z,47.48
2023-05-09T11:08:32.376Z,46.73
2023-05-09T11:09:32.422Z,50.31
2023-05-09T11:10:32.449Z,48.95
2023-05-09T11:11:32.486Z,48.26
2023-05-09T11:12:32.490Z,48.87
2023-05-09T11:13:32.563Z,45.65
2023-05-09T11:14:32.976Z,46.77
2023-05-09T11:15:32.572Z,44.46
2023-05-09T11:16:32.754Z,45.36
2023-05-09T11:17:32.665Z,42.48
2023-05-09T11:18:32.701Z,42.83
2023-05-09T11:19:32.657Z,43.60
2023-05-09T11:20:32.719Z,44.51
2023-05-09T11:21:32.759Z,41.30
2023-05-09T11:22:32.966Z,42.98
2023-05-09T11:23:32.829Z,42.04
2023-05-09T11:24:32.879Z,38.90
2023-05-09T11:25:32.867Z,38.61
2023-05-09T11:26:32.939Z,38.66
2023-05-09T11:27:32.933Z,36.52
2023-05-09T11:28:32.982Z,36.23
2023-05-09T11:29:33.504Z,36.50
2023-05-09T11:30:33.025Z,37.36
2023-05-09T11:31:33.089Z,35.03
2023-05-09T11:32:33.228Z,34.61
2023-05-09T11:33:33.121Z,34.41
2023-05-09T11:34:33.187Z,35.23
2023-05-09T11:35:33.254Z,34.31
2023-05-09T11:36:33.370Z,35.72
2023-05-09T11:37:33.309Z,33.35
2023-05-09T11:38:33.335Z,32.50
2023-05-09T11:39:33.396Z,34.83
2023-05-09T11:40:33.420Z,32.55
2023-05-09T11:41:33.479Z,32.15
2023-05-09T11:42:33.493Z,34.01
2023-05-09T11:43:33.528Z,35.02
2023-05-09T11:44:33.629Z,32.09
2023-05-09T11:45:33.715Z,32.54
2023-05-09T11:46:33.715Z,33.34
2023-05-09T11:47:33.735Z,33.72
2023-05-09T11:48:33.843Z,33.20
2023-05-09T11:49:33.974Z,32.81
2023-05-09T11:50:33.838Z,31.17
2023-05-09T11:51:33.878Z,34.85
2023-05-09T11:52:33.922Z,35.11
2023-05-09T11:53:33.948Z,30.66
2023-05-09T11:54:33.998Z,30.70
2023-05-09T11:55:34.080Z,32.23
2023-05-09T11:56:34.093Z,30.99
2023-05-09T11:57:34.162Z,27.94
2023-05-09T11:58:34.193Z,26.67
2023-05-09T11:59:34.219Z,28.78
2023-05-09T12:00:34.286Z,30.09
2023-05-09T12:01:34.350Z,29.68
2023-05-09T12:02:34.438Z,30.59
2023-05-09T12:03:34.519Z,29.39
2023-05-09T12:04:34.633Z,30.07
2023-05-09T12:05:34.559Z,27.96
2023-05-09T12:06:34.605Z,28.68
2023-05-09T12:07:34.620Z,30.08
2023-05-09T12:08:34.650Z,28.74
2023-05-09T12:09:35.007Z,28.79
2023-05-09T12:10:34.800Z,28.62
2023-05-09T12:11:34.790Z,27.12
2023-05-09T12:12:35.790Z,27.37
2023-05-09T12:13:34.776Z,27.79
2023-05-09T12:14:34.781Z,28.76
2023-05-09T12:15:34.759Z,29.33
2023-05-09T12:16:34.966Z,30.27
2023-05-09T12:17:34.796Z,28.48
2023-05-09T12:18:34.749Z,29.00
2023-05-09T12:19:34.741Z,28.26
2023-05-09T12:20:34.816Z,28.99
2023-05-09T12:21:34.763Z,28.91
2023-05-09T12:22:34.719Z,27.98
2023-05-09T12:23:34.730Z,27.70
2023-05-09T12:24:34.732Z,27.02
2023-05-09T12:25:34.996Z,28.07
2023-05-09T12:26:35.028Z,27.86
2023-05-09T12:27:34.912Z,29.77
2023-05-09T12:28:34.956Z,25.28
2023-05-09T12:29:35.012Z,28.27
2023-05-09T12:30:35.060Z,27.53
2023-05-09T12:31:35.123Z,28.18
2023-05-09T12:32:35.169Z,27.69
2023-05-09T12:33:35.200Z,27.93
2023-05-09T12:34:35.264Z,29.05
2023-05-09T12:35:35.503Z,27.09
2023-05-09T12:36:35.561Z,31.35
2023-05-09T12:37:35.407Z,28.87
2023-05-09T12:38:35.494Z,29.81
2023-05-09T12:39:35.526Z,27.73
2023-05-09T12:40:36.029Z,26.41
2023-05-09T12:41:43.949Z,26.27
2023-05-09T12:42:36.626Z,26.58
2023-05-09T12:43:35.593Z,27.23
2023-05-09T12:44:35.615Z,27.73
2023-05-09T12:45:35.574Z,27.06
2023-05-09T12:46:36.888Z,29.08
2023-05-09T12:47:35.616Z,29.85
2023-05-09T12:48:35.557Z,27.30